Time;durP1;ratioP1;P1;durP2;ratioP2;P2;SDS_P1;SDS_P2;PMS_P1;PMS_P2;Temp;Humidity;BMP_temperature;BMP_pressure;BME280_temperature;BME280_humidity;BME280_pressure;Samples;Min_cycle;Max_cycle;Signal;HPM_P1;HPM_P2
2022/07/03 00:01:23;;;;;;;;;;;;;;;21.85;60.38;100073.69;4441850;32;20333;-87
2022/07/03 00:03:48;;;;;;;;;;;;;;;21.93;60.38;100066.00;4441698;32;20370;-87
2022/07/03 00:06:13;;;;;;;;;;;;;;;21.93;60.38;100066.84;4454156;32;24407;-87
2022/07/03 00:08:38;;;;;;;;;;;;;;;21.95;60.39;100072.03;4441758;32;20311;-86
2022/07/03 00:11:06;;;;;;;;;;;;;;;22.12;60.40;100073.47;4440992;32;26408;-87
2022/07/03 00:13:32;;;;;;;;;;;;;;;21.96;60.39;100073.72;4454475;32;20369;-86
2022/07/03 00:15:57;;;;;;;;;;;;;;;21.97;60.39;100065.66;4453930;32;25085;-86
2022/07/03 00:18:22;;;;;;;;;;;;;;;21.87;60.39;100071.78;4441084;32;26924;-87
2022/07/03 00:20:48;;;;;;;;;;;;;;;21.82;60.39;100064.16;4454190;32;19996;-87
2022/07/03 00:23:15;;;;;;;;;;;;;;;21.91;60.38;100070.56;4441585;32;20364;-87
2022/07/03 00:25:41;;;;;;;;;;;;;;;21.51;60.37;100067.34;4441356;32;20007;-86
2022/07/03 00:28:06;;;;;;;;;;;;;;;21.52;60.37;100061.94;4454704;32;20012;-87
2022/07/03 00:30:31;;;;;;;;;;;;;;;21.57;60.38;100062.47;4441713;32;20014;-87
2022/07/03 00:32:56;;;;;;;;;;;;;;;21.42;60.37;100059.09;4440947;32;27106;-88
2022/07/03 00:35:22;;;;;;;;;;;;;;;21.75;60.38;100053.16;4440701;32;28723;-87
2022/07/03 00:37:47;;;;;;;;;;;;;;;21.52;60.37;100056.63;4441343;32;20067;-87
2022/07/03 00:40:12;;;;;;;;;;;;;;;21.68;60.37;100054.56;4440771;32;22351;-87
2022/07/03 00:42:38;;;;;;;;;;;;;;;21.50;60.36;100060.34;4441121;32;19988;-87
2022/07/03 00:45:03;;;;;;;;;;;;;;;21.66;60.37;100066.22;4441410;32;20008;-87
2022/07/03 00:47:29;;;;;;;;;;;;;;;21.34;60.35;100069.41;4441218;32;20011;-87
2022/07/03 00:49:55;;;;;;;;;;;;;;;21.11;60.35;100068.38;4441374;32;20004;-87
2022/07/03 00:52:21;;;;;;;;;;;;;;;21.21;60.35;100063.25;4456496;32;20036;-87
2022/07/03 00:54:56;;;;;;;;;;;;;;;21.30;60.35;100060.00;4443248;32;20296;-87
2022/07/03 00:57:21;;;;;;;;;;;;;;;21.32;60.36;100051.94;4443163;32;20000;-87
2022/07/03 00:59:47;;;;;;;;;;;;;;;21.22;60.34;100061.44;4443230;32;20015;-87
2022/07/03 01:02:19;;;;;;;;;;;;;;;21.22;60.35;100050.87;4456187;32;20491;-87
2022/07/03 01:04:53;;;;;;;;;;;;;;;21.33;60.36;100051.00;4443139;32;20327;-87
2022/07/03 01:07:38;;;;;;;;;;;;;;;21.18;60.35;100050.25;4470480;32;20008;-87
2022/07/03 01:10:04;;;;;;;;;;;;;;;21.04;60.34;100045.91;4456073;32;19973;-87
2022/07/03 01:12:36;;;;;;;;;;;;;;;20.90;60.33;100040.75;4443256;32;20429;-87
2022/07/03 01:15:01;;;;;;;;;;;;;;;20.93;60.33;100045.84;4456245;32;19985;-86
2022/07/03 01:17:28;;;;;;;;;;;;;;;20.92;60.33;100046.78;4470434;32;19977;-87
2022/07/03 01:19:55;;;;;;;;;;;;;;;20.96;60.33;100048.25;4443027;32;19991;-87
2022/07/03 01:22:37;;;;;;;;;;;;;;;21.22;60.34;100050.87;4456161;32;19992;-87
2022/07/03 01:25:21;;;;;;;;;;;;;;;21.19;60.35;100048.44;4442981;32;19977;-87
2022/07/03 01:28:05;;;;;;;;;;;;;;;21.01;60.34;100048.78;4470829;32;20055;-87
2022/07/03 01:30:31;;;;;;;;;;;;;;;20.95;60.34;100040.44;4470306;32;19995;-87
2022/07/03 01:32:57;;;;;;;;;;;;;;;20.93;60.33;100037.88;4456276;32;20087;-88
2022/07/03 01:35:26;;;;;;;;;;;;;;;20.98;60.33;100041.06;4443251;32;20001;-87
2022/07/03 01:37:52;;;;;;;;;;;;;;;20.96;60.33;100035.03;4443316;32;20011;-87
2022/07/03 01:40:17;;;;;;;;;;;;;;;20.92;60.33;100038.84;4443147;32;19995;-88
2022/07/03 01:42:43;;;;;;;;;;;;;;;21.01;60.34;100040.84;4443127;32;20268;-87
2022/07/03 01:45:08;;;;;;;;;;;;;;;20.99;60.34;100034.81;4443293;32;20029;-88
2022/07/03 01:47:34;;;;;;;;;;;;;;;20.94;60.34;100036.09;4456126;32;19984;-87
2022/07/03 01:49:59;;;;;;;;;;;;;;;20.95;60.34;100030.69;4456065;32;20381;-87
2022/07/03 01:52:24;;;;;;;;;;;;;;;20.94;60.34;100034.28;4455430;32;27934;-88
2022/07/03 01:54:49;;;;;;;;;;;;;;;20.84;60.32;100034.09;4456202;32;20033;-87
2022/07/03 01:57:15;;;;;;;;;;;;;;;20.87;60.33;100038.34;4469634;32;23830;-87
2022/07/03 01:59:40;;;;;;;;;;;;;;;20.93;60.33;100029.94;4442551;32;21767;-87
2022/07/03 02:02:16;;;;;;;;;;;;;;;20.73;60.32;100025.19;4456081;32;20031;-88
2022/07/03 02:05:08;;;;;;;;;;;;;;;20.81;60.33;100028.16;4456172;32;19992;-88
2022/07/03 02:07:40;;;;;;;;;;;;;;;20.71;60.32;100035.06;4453179;32;19992;-88
2022/07/03 02:10:08;;;;;;;;;;;;;;;20.87;60.33;100035.69;4443430;32;19977;-88
2022/07/03 02:12:37;;;;;;;;;;;;;;;20.69;60.31;100029.88;4443362;32;20072;-88
2022/07/03 02:15:06;;;;;;;;;;;;;;;20.63;60.32;100035.59;4456096;32;20045;-88
2022/07/03 02:17:38;;;;;;;;;;;;;;;20.57;60.31;100041.28;4443424;32;20024;-88
2022/07/03 02:20:06;;;;;;;;;;;;;;;20.67;60.32;100030.94;4456473;32;19984;-88
2022/07/03 02:22:33;;;;;;;;;;;;;;;20.56;60.32;100038.75;4443864;32;20633;-87
2022/07/03 02:25:06;;;;;;;;;;;;;;;20.60;60.31;100040.25;4443306;32;19993;-88
2022/07/03 02:27:32;;;;;;;;;;;;;;;20.65;60.32;100033.69;4444245;32;19988;-88
2022/07/03 02:30:04;;;;;;;;;;;;;;;20.77;60.33;100038.09;4443918;32;19973;-88
2022/07/03 02:32:30;;;;;;;;;;;;;;;20.53;60.31;100040.66;4456395;32;20373;-88
2022/07/03 02:35:04;;;;;;;;;;;;;;;20.43;60.31;100033.47;4443554;32;20041;-88
2022/07/03 02:37:41;;;;;;;;;;;;;;;20.64;60.31;100036.44;4456213;32;20349;-88
2022/07/03 02:40:26;;;;;;;;;;;;;;;20.47;60.31;100041.06;4443404;32;20282;-88
2022/07/03 02:42:54;;;;;;;;;;;;;;;20.29;60.30;100039.63;4443227;32;20052;-88
2022/07/03 02:45:20;;;;;;;;;;;;;;;20.31;60.31;100045.66;4455935;32;20032;-88
2022/07/03 02:47:48;;;;;;;;;;;;;;;20.19;60.29;100044.72;4442987;32;19988;-88
2022/07/03 02:50:20;;;;;;;;;;;;;;;20.11;60.29;100051.44;4442923;32;19995;-88
2022/07/03 02:52:46;;;;;;;;;;;;;;;20.25;60.29;100048.72;4443059;32;19981;-88
2022/07/03 02:55:19;;;;;;;;;;;;;;;20.08;60.29;100052.50;4456148;32;20035;-88
2022/07/03 02:57:45;;;;;;;;;;;;;;;20.22;60.29;100048.94;4443129;32;19984;-88
2022/07/03 03:00:11;;;;;;;;;;;;;;;20.15;60.28;100042.38;4443493;32;20337;-88
2022/07/03 03:02:36;;;;;;;;;;;;;;;19.95;60.28;100048.97;4443457;32;20044;-88
2022/07/03 03:05:02;;;;;;;;;;;;;;;19.97;60.28;100046.25;4455829;32;20004;-88
2022/07/03 03:07:35;;;;;;;;;;;;;;;19.97;60.28;100043.59;4442957;32;19996;-88
2022/07/03 03:10:00;;;;;;;;;;;;;;;20.05;60.29;100042.12;4443399;32;20003;-88
2022/07/03 03:12:35;;;;;;;;;;;;;;;20.29;60.30;100052.84;4442838;32;20310;-89
2022/07/03 03:15:01;;;;;;;;;;;;;;;20.09;60.29;100058.63;4443177;32;20003;-88
2022/07/03 03:17:26;;;;;;;;;;;;;;;20.17;60.29;100046.63;4443241;32;20617;-88
2022/07/03 03:19:52;;;;;;;;;;;;;;;19.90;60.27;100040.53;4442629;32;22308;-88
2022/07/03 03:22:20;;;;;;;;;;;;;;;19.98;60.28;100043.50;4443070;32;20029;-88
2022/07/03 03:24:45;;;;;;;;;;;;;;;19.96;60.28;100041.91;4470125;32;20067;-88
2022/07/03 03:27:11;;;;;;;;;;;;;;;20.00;60.28;100046.87;4442436;32;29074;-88
2022/07/03 03:29:36;;;;;;;;;;;;;;;20.10;60.29;100036.53;4442925;32;20308;-89
2022/07/03 03:32:02;;;;;;;;;;;;;;;20.12;60.29;100032.88;4455434;32;25033;-88
2022/07/03 03:34:28;;;;;;;;;;;;;;;20.18;60.29;100034.25;4442824;32;20012;-89
2022/07/03 03:36:53;;;;;;;;;;;;;;;20.33;60.30;100033.19;4442894;32;20000;-88
2022/07/03 03:39:18;;;;;;;;;;;;;;;20.31;60.30;100034.25;4442814;32;19987;-88
2022/07/03 03:41:43;;;;;;;;;;;;;;;20.29;60.29;100036.16;4455439;32;20018;-88
2022/07/03 03:44:09;;;;;;;;;;;;;;;20.47;60.31;100032.28;4442481;32;20258;-88
2022/07/03 03:46:34;;;;;;;;;;;;;;;20.44;60.30;100025.41;4442629;32;19988;-88
2022/07/03 03:48:59;;;;;;;;;;;;;;;20.78;60.32;100018.62;4442522;32;20030;-88
2022/07/03 03:51:24;;;;;;;;;;;;;;;20.60;60.31;100014.66;4443120;32;19999;-89
2022/07/03 03:53:50;;;;;;;;;;;;;;;20.65;60.32;100027.53;4443321;32;19981;-89
2022/07/03 03:56:15;;;;;;;;;;;;;;;20.90;60.33;100032.81;4441952;32;22914;-88
2022/07/03 03:58:40;;;;;;;;;;;;;;;21.12;60.34;100033.00;4442366;32;20277;-89
2022/07/03 04:01:06;;;;;;;;;;;;;;;20.91;60.32;100046.91;4442222;32;20102;-88
2022/07/03 04:03:32;;;;;;;;;;;;;;;20.97;60.33;100043.81;4455274;32;20029;-88
2022/07/03 04:05:57;;;;;;;;;;;;;;;21.11;60.34;100046.34;4455228;32;20016;-88
2022/07/03 04:08:22;;;;;;;;;;;;;;;21.07;60.33;100045.72;4441654;32;26085;-88
2022/07/03 04:10:48;;;;;;;;;;;;;;;21.01;60.34;100051.41;4455354;32;19997;-88
2022/07/03 04:13:13;;;;;;;;;;;;;;;21.16;60.33;100049.50;4442121;32;20261;-88
2022/07/03 04:15:38;;;;;;;;;;;;;;;21.12;60.34;100043.59;4442196;32;20340;-88
2022/07/03 04:18:03;;;;;;;;;;;;;;;21.31;60.34;100051.09;4469469;32;19993;-88
2022/07/03 04:20:30;;;;;;;;;;;;;;;21.29;60.35;100052.97;4454959;32;19973;-88
2022/07/03 04:22:55;;;;;;;;;;;;;;;21.23;60.34;100044.59;4454855;32;20004;-87
2022/07/03 04:25:21;;;;;;;;;;;;;;;21.55;60.36;100039.69;4456188;32;20004;-88
2022/07/03 04:27:46;;;;;;;;;;;;;;;21.60;60.36;100038.41;4456805;32;20026;-87
2022/07/03 04:30:11;;;;;;;;;;;;;;;21.60;60.36;100033.09;4443960;32;20093;-88
2022/07/03 04:32:37;;;;;;;;;;;;;;;21.79;60.36;100031.75;4444166;32;19976;-88
2022/07/03 04:35:02;;;;;;;;;;;;;;;21.74;60.37;100027.59;4444028;32;20013;-88
2022/07/03 04:37:27;;;;;;;;;;;;;;;21.70;60.38;100028.81;4456991;32;19969;-89
2022/07/03 04:39:53;;;;;;;;;;;;;;;21.83;60.37;100027.91;4443384;32;22742;-88
2022/07/03 04:42:18;;;;;;;;;;;;;;;21.99;60.38;100016.03;4470577;32;19998;-88
2022/07/03 04:44:43;;;;;;;;;;;;;;;22.26;60.40;100017.63;4443945;32;20112;-88
2022/07/03 04:47:08;;;;;;;;;;;;;;;22.48;60.41;100017.66;4456693;32;19969;-89
2022/07/03 04:49:34;;;;;;;;;;;;;;;22.30;60.39;100019.91;4471009;32;20325;-88
2022/07/03 04:51:59;;;;;;;;;;;;;;;22.34;60.41;100017.88;4443254;32;26335;-86
2022/07/03 04:54:24;;;;;;;;;;;;;;;22.31;60.40;100018.09;4443043;32;26648;-88
2022/07/03 04:56:49;;;;;;;;;;;;;;;22.48;60.42;100017.66;4471079;32;20311;-88
2022/07/03 04:59:15;;;;;;;;;;;;;;;22.66;60.42;100015.38;4470392;32;21399;-88
2022/07/03 05:01:40;;;;;;;;;;;;;;;22.69;60.42;100009.81;4443527;32;20000;-88
2022/07/03 05:04:05;;;;;;;;;;;;;;;22.74;60.43;100005.03;4456097;32;27060;-88
2022/07/03 05:06:30;;;;;;;;;;;;;;;23.05;60.44;100000.81;4443318;32;20029;-88
2022/07/03 05:08:55;;;;;;;;;;;;;;;23.27;60.45;99992.81;4470429;32;20004;-88
2022/07/03 05:11:21;;;;;;;;;;;;;;;23.34;60.46;100002.94;4456516;32;20334;-88
2022/07/03 05:13:46;;;;;;;;;;;;;;;23.39;60.45;99992.75;4470750;32;20013;-88
2022/07/03 05:16:12;;;;;;;;;;;;;;;23.58;60.46;99987.69;4457825;32;20028;-88
2022/07/03 05:18:37;;;;;;;;;;;;;;;23.83;60.48;99990.00;4443629;32;20302;-88
2022/07/03 05:21:02;;;;;;;;;;;;;;;23.89;60.49;99984.16;4455674;32;22365;-88
2022/07/03 05:23:28;;;;;;;;;;;;;;;23.96;60.48;99975.69;4456381;32;19999;-87
2022/07/03 05:25:55;;;;;;;;;;;;;;;24.07;60.49;99973.78;4456367;32;19995;-88
2022/07/03 05:28:20;;;;;;;;;;;;;;;24.14;60.49;99980.31;4456490;32;19980;-88
2022/07/03 05:30:45;;;;;;;;;;;;;;;24.23;60.50;99981.31;4455827;32;20347;-88
2022/07/03 05:33:10;;;;;;;;;;;;;;;24.55;60.51;99985.72;4442806;32;23580;-88
2022/07/03 05:35:36;;;;;;;;;;;;;;;24.61;60.52;99982.56;4469768;32;20024;-87
2022/07/03 05:38:01;;;;;;;;;;;;;;;24.79;60.53;99981.78;4470366;32;20007;-88
2022/07/03 05:40:26;;;;;;;;;;;;;;;24.93;60.53;99988.56;4469673;32;25654;-88
2022/07/03 05:42:53;;;;;;;;;;;;;;;24.99;60.54;99990.72;4455704;32;20032;-87
2022/07/03 05:45:18;;;;;;;;;;;;;;;25.14;60.54;99987.69;4470412;32;19976;-88
2022/07/03 05:47:43;;;;;;;;;;;;;;;25.13;60.54;99986.00;4470318;32;20266;-87
2022/07/03 05:50:09;;;;;;;;;;;;;;;25.40;60.56;99988.88;4455813;32;20077;-87
2022/07/03 05:52:34;;;;;;;;;;;;;;;25.55;60.57;99994.63;4455953;32;19993;-87
2022/07/03 05:54:59;;;;;;;;;;;;;;;25.30;60.56;99986.16;4442444;32;20003;-87
2022/07/03 05:57:24;;;;;;;;;;;;;;;25.59;60.56;99993.37;4442106;32;28421;-87
2022/07/03 05:59:50;;;;;;;;;;;;;;;25.65;60.57;99992.81;4442805;32;20023;-88
2022/07/03 06:02:15;;;;;;;;;;;;;;;25.73;60.58;99997.47;4442658;32;20383;-87
2022/07/03 06:04:40;;;;;;;;;;;;;;;26.11;60.60;99988.63;4442305;32;24488;-88
2022/07/03 06:07:05;;;;;;;;;;;;;;;25.97;60.59;99993.41;4442408;32;23480;-87
2022/07/03 06:09:30;;;;;;;;;;;;;;;26.17;60.60;99996.03;4442234;32;28022;-88
2022/07/03 06:11:56;;;;;;;;;;;;;;;26.33;60.61;99993.63;4455902;32;20032;-88
2022/07/03 06:14:21;;;;;;;;;;;;;;;26.24;60.61;99995.31;4455576;32;19996;-88
2022/07/03 06:16:46;;;;;;;;;;;;;;;26.38;60.61;100011.91;4442242;32;31028;-88
2022/07/03 06:19:11;;;;;;;;;;;;;;;26.53;60.61;100006.00;4455987;32;19981;-88
2022/07/03 06:21:37;;;;;;;;;;;;;;;26.50;60.61;100013.41;4455786;32;19996;-88
2022/07/03 06:24:02;;;;;;;;;;;;;;;26.67;60.62;100003.81;4442654;32;19977;-88
2022/07/03 06:26:28;;;;;;;;;;;;;;;26.80;60.64;99997.19;4442500;32;22930;-88
2022/07/03 06:28:54;;;;;;;;;;;;;;;26.85;60.63;100002.06;4443168;32;20045;-88
2022/07/03 06:31:19;;;;;;;;;;;;;;;26.97;60.64;99997.38;4455561;32;21450;-88
2022/07/03 06:33:44;;;;;;;;;;;;;;;27.06;60.64;100000.03;4455837;32;20010;-88
2022/07/03 06:36:09;;;;;;;;;;;;;;;27.23;60.65;99994.91;4442617;32;21785;-88
2022/07/03 06:38:35;;;;;;;;;;;;;;;27.42;60.65;99995.59;4456832;32;20397;-88
2022/07/03 06:41:00;;;;;;;;;;;;;;;27.75;60.68;99985.25;4443679;32;20004;-88
2022/07/03 06:43:25;;;;;;;;;;;;;;;27.90;60.68;99980.19;4455704;32;19972;-88
2022/07/03 06:45:50;;;;;;;;;;;;;;;28.11;60.70;99981.53;4469375;32;27524;-88
2022/07/03 06:48:16;;;;;;;;;;;;;;;28.53;60.71;99980.84;4468853;32;20302;-88
2022/07/03 06:50:41;;;;;;;;;;;;;;;28.97;60.74;99972.72;4469938;32;20025;-88
2022/07/03 06:53:06;;;;;;;;;;;;;;;29.25;60.76;99976.84;4455044;32;23804;-84
2022/07/03 06:55:31;;;;;;;;;;;;;;;29.53;60.76;99974.72;4469434;32;21954;-85
2022/07/03 06:57:56;;;;;;;;;;;;;;;29.53;60.76;99972.06;4469950;32;19984;-85
2022/07/03 07:00:22;;;;;;;;;;;;;;;29.32;60.75;99968.97;4442549;32;19985;-85
2022/07/03 07:02:47;;;;;;;;;;;;;;;29.52;60.77;99970.37;4455517;32;20022;-85
2022/07/03 07:05:12;;;;;;;;;;;;;;;29.72;60.78;99970.91;4455115;32;19972;-85
2022/07/03 07:07:37;;;;;;;;;;;;;;;29.72;60.78;99968.22;4454855;32;24900;-85
2022/07/03 07:10:03;;;;;;;;;;;;;;;29.55;60.77;99961.16;4469533;32;19992;-85
2022/07/03 07:12:28;;;;;;;;;;;;;;;29.95;60.78;99966.56;4455410;32;19977;-85
2022/07/03 07:14:53;;;;;;;;;;;;;;;30.16;60.80;99968.75;4454785;32;26992;-85
2022/07/03 07:17:18;;;;;;;;;;;;;;;30.31;60.81;99958.16;4469064;32;24051;-85
2022/07/03 07:19:44;;;;;;;;;;;;;;;30.50;60.81;99959.59;4454790;32;20026;-85
2022/07/03 07:22:09;;;;;;;;;;;;;;;30.70;60.82;99949.34;4469051;32;24091;-85
2022/07/03 07:24:34;;;;;;;;;;;;;;;30.84;60.84;99954.81;4441905;32;26838;-84
2022/07/03 07:26:59;;;;;;;;;;;;;;;30.94;60.83;99954.59;4454870;32;20435;-85
2022/07/03 07:29:24;;;;;;;;;;;;;;;30.91;60.83;99963.03;4454807;32;22106;-86
2022/07/03 07:31:50;;;;;;;;;;;;;;;31.04;60.84;99963.31;4442224;32;19973;-86
2022/07/03 07:34:15;;;;;;;;;;;;;;;30.93;60.84;99957.47;4441977;32;22252;-86
2022/07/03 07:36:40;;;;;;;;;;;;;;;31.20;60.85;99962.41;4441989;32;20234;-86
2022/07/03 07:39:05;;;;;;;;;;;;;;;31.17;60.86;99962.75;4469537;32;19984;-86
2022/07/03 07:41:31;;;;;;;;;;;;;;;31.52;60.86;99969.44;4442015;32;20071;-86
2022/07/03 07:43:56;;;;;;;;;;;;;;;31.64;60.88;99964.47;4442151;32;20046;-86
2022/07/03 07:46:21;;;;;;;;;;;;;;;31.57;60.88;99963.53;4442365;32;20008;-87
2022/07/03 07:48:46;;;;;;;;;;;;;;;31.35;60.86;99962.50;4442238;32;20090;-88
2022/07/03 07:51:11;;;;;;;;;;;;;;;31.52;60.86;99964.06;4442132;32;19977;-88
2022/07/03 07:53:37;;;;;;;;;;;;;;;31.30;60.85;99971.09;4441869;32;21631;-85
2022/07/03 07:56:02;;;;;;;;;;;;;;;31.44;60.87;99964.09;4441387;32;27845;-86
2022/07/03 07:58:28;;;;;;;;;;;;;;;31.45;60.86;99974.69;4469462;32;20325;-86
2022/07/03 08:06:21;;;;;;;;;;;;;;;31.69;60.87;99972.84;4462529;32;20030;-86
2022/07/03 08:08:46;;;;;;;;;;;;;;;31.68;60.87;99971.16;4446711;32;21088;-86
2022/07/03 08:11:11;;;;;;;;;;;;;;;31.79;60.88;99964.56;4446981;32;20097;-86
2022/07/03 08:13:36;;;;;;;;;;;;;;;31.95;60.90;99965.28;4447000;32;22262;-86
2022/07/03 08:16:02;;;;;;;;;;;;;;;32.18;60.89;99957.16;4446411;32;28273;-86
2022/07/03 08:18:27;;;;;;;;;;;;;;;32.40;60.91;99971.56;4446649;32;19993;-86
2022/07/03 08:20:52;;;;;;;;;;;;;;;32.14;60.91;99965.75;4459819;32;19969;-86
2022/07/03 08:23:17;;;;;;;;;;;;;;;32.22;60.90;99963.00;4459389;32;22069;-86
2022/07/03 08:25:43;;;;;;;;;;;;;;;32.14;60.90;99969.28;4459362;32;19993;-84
2022/07/03 08:28:08;;;;;;;;;;;;;;;32.28;60.91;99968.50;4459308;32;19992;-84
2022/07/03 08:30:33;;;;;;;;;;;;;;;32.59;60.92;99959.41;4459685;32;19987;-84
2022/07/03 08:32:58;;;;;;;;;;;;;;;32.47;60.92;99964.44;4459555;32;19983;-84
2022/07/03 08:35:24;;;;;;;;;;;;;;;32.84;60.94;99954.59;4473834;32;20000;-84
2022/07/03 08:37:49;;;;;;;;;;;;;;;33.13;60.95;99962.66;4459549;32;20035;-84
2022/07/03 08:40:14;;;;;;;;;;;;;;;33.25;60.96;99960.28;4446399;32;19972;-83
2022/07/03 08:42:50;;;;;;;;;;;;;;;33.31;60.95;99955.97;4446236;32;19988;-84
2022/07/03 08:45:16;;;;;;;;;;;;;;;33.32;60.96;99961.22;4446381;32;19989;-83
2022/07/03 08:47:41;;;;;;;;;;;;;;;33.46;60.97;99960.34;4446391;32;20041;-84
2022/07/03 08:50:07;;;;;;;;;;;;;;;33.63;60.97;99954.69;4446427;32;20312;-84
2022/07/03 08:52:33;;;;;;;;;;;;;;;33.60;60.97;99955.06;4459409;32;19965;-84
2022/07/03 08:54:58;;;;;;;;;;;;;;;33.55;60.97;99955.66;4446425;32;20007;-84
2022/07/03 08:57:23;;;;;;;;;;;;;;;33.83;60.99;99955.69;4473177;32;19984;-84
2022/07/03 08:59:50;;;;;;;;;;;;;;;33.97;61.00;99952.12;4459205;32;20093;-84
2022/07/03 09:02:15;;;;;;;;;;;;;;;34.15;61.00;99943.53;4446160;32;19973;-83
2022/07/03 09:04:40;;;;;;;;;;;;;;;34.06;61.00;99948.22;4458886;32;19996;-84
2022/07/03 09:07:08;;;;;;;;;;;;;;;34.04;61.00;99946.75;4459215;32;20036;-84
2022/07/03 09:09:33;;;;;;;;;;;;;;;34.11;60.99;99943.09;4446212;32;20261;-83
2022/07/03 09:11:58;;;;;;;;;;;;;;;34.29;61.00;99941.75;4470271;32;20005;-84
2022/07/03 09:14:23;;;;;;;;;;;;;;;34.43;61.01;99936.25;4443261;32;20276;-84
2022/07/03 09:16:49;;;;;;;;;;;;;;;34.42;61.01;99936.47;4442510;32;30199;-84
2022/07/03 09:19:14;;;;;;;;;;;;;;;34.53;61.01;99926.94;4443286;32;20027;-84
2022/07/03 09:21:40;;;;;;;;;;;;;;;34.52;61.01;99930.69;4455373;32;32637;-83
2022/07/03 09:24:06;;;;;;;;;;;;;;;34.68;61.03;99923.06;4443297;32;20341;-84
2022/07/03 09:26:31;;;;;;;;;;;;;;;34.87;61.04;99926.09;4443400;32;20422;-84
2022/07/03 09:28:56;;;;;;;;;;;;;;;34.68;61.02;99924.94;4443128;32;20016;-84
2022/07/03 09:31:24;;;;;;;;;;;;;;;34.89;61.04;99924.87;4443193;32;19999;-84
2022/07/03 09:34:02;;;;;;;;;;;;;;;34.97;61.04;99919.28;4456239;32;19999;-83
2022/07/03 09:36:46;;;;;;;;;;;;;;;34.50;61.02;99916.53;4443197;32;19996;-83
2022/07/03 09:39:11;;;;;;;;;;;;;;;34.38;61.02;99913.56;4456162;32;20033;-84
2022/07/03 09:41:56;;;;;;;;;;;;;;;34.15;61.00;99911.13;4470157;32;20001;-83
2022/07/03 09:44:30;;;;;;;;;;;;;;;34.30;61.01;99911.81;4456162;32;20045;-84
2022/07/03 09:47:09;;;;;;;;;;;;;;;34.59;61.02;99907.25;4456038;32;20000;-84
2022/07/03 09:49:46;;;;;;;;;;;;;;;34.77;61.04;99899.38;4443127;32;19989;-84
2022/07/03 09:52:30;;;;;;;;;;;;;;;34.86;61.04;99895.53;4455982;32;20003;-85
2022/07/03 09:54:56;;;;;;;;;;;;;;;35.00;61.04;99894.50;4470495;32;19998;-85
2022/07/03 09:57:22;;;;;;;;;;;;;;;34.85;61.03;99898.44;4456213;32;19993;-85
2022/07/03 09:59:48;;;;;;;;;;;;;;;34.78;61.04;99901.06;4442975;32;20059;-85
2022/07/03 10:02:13;;;;;;;;;;;;;;;34.57;61.03;99899.34;4456041;32;20239;-85
2022/07/03 10:04:38;;;;;;;;;;;;;;;34.67;61.03;99893.53;4442893;32;20015;-86
2022/07/03 10:07:03;;;;;;;;;;;;;;;34.87;61.04;99891.78;4456017;32;19992;-85
2022/07/03 10:09:29;;;;;;;;;;;;;;;34.70;61.04;99890.44;4442876;32;19977;-85
2022/07/03 10:11:55;;;;;;;;;;;;;;;34.73;61.03;99890.03;4455913;32;19992;-85
2022/07/03 10:14:21;;;;;;;;;;;;;;;34.52;61.02;99887.44;4455843;32;19995;-85
2022/07/03 10:16:46;;;;;;;;;;;;;;;34.71;61.04;99882.13;4455915;32;20024;-85
2022/07/03 10:19:12;;;;;;;;;;;;;;;34.73;61.04;99884.63;4442796;32;20041;-85
2022/07/03 10:21:37;;;;;;;;;;;;;;;34.65;61.03;99868.56;4469859;32;19985;-85
2022/07/03 10:24:03;;;;;;;;;;;;;;;34.66;61.03;99879.19;4442028;32;25907;-85
2022/07/03 10:26:28;;;;;;;;;;;;;;;34.53;61.03;99883.69;4442810;32;20013;-85
2022/07/03 10:28:53;;;;;;;;;;;;;;;34.35;61.01;99871.56;4455617;32;20387;-85
2022/07/03 10:31:19;;;;;;;;;;;;;;;34.50;61.02;99871.41;4455037;32;25421;-85
2022/07/03 10:33:44;;;;;;;;;;;;;;;34.66;61.03;99876.47;4455580;32;20024;-85
2022/07/03 10:36:09;;;;;;;;;;;;;;;34.78;61.04;99866.78;4442106;32;26538;-85
2022/07/03 10:38:34;;;;;;;;;;;;;;;34.89;61.05;99864.53;4469290;32;26119;-85
2022/07/03 10:46:32;;;;;;;;;;;;;;;35.07;61.05;99856.66;4457814;32;20007;-85
2022/07/03 10:48:57;;;;;;;;;;;;;;;35.05;61.05;99848.75;4455419;32;20017;-85
2022/07/03 10:51:22;;;;;;;;;;;;;;;34.79;61.04;99845.97;4455619;32;19998;-85
2022/07/03 10:53:47;;;;;;;;;;;;;;;34.76;61.04;99851.75;4455743;32;20261;-85
2022/07/03 10:56:14;;;;;;;;;;;;;;;34.92;61.05;99856.84;4442708;32;20345;-85
2022/07/03 10:58:58;;;;;;;;;;;;;;;35.00;61.06;99853.94;4442836;32;19996;-86
2022/07/03 11:01:27;;;;;;;;;;;;;;;35.28;61.06;99852.97;4455640;32;20033;-85
2022/07/03 11:03:55;;;;;;;;;;;;;;;35.52;61.07;99849.66;4455492;32;20041;-83
2022/07/03 11:06:20;;;;;;;;;;;;;;;35.65;61.09;99848.81;4442984;32;20039;-85
2022/07/03 11:09:04;;;;;;;;;;;;;;;35.37;61.07;99849.03;4455422;32;19980;-85
2022/07/03 11:11:57;;;;;;;;;;;;;;;35.76;61.09;99841.94;4469763;32;19989;-85
2022/07/03 11:14:26;;;;;;;;;;;;;;;35.51;61.08;99848.00;4469694;32;19996;-85
2022/07/03 11:17:10;;;;;;;;;;;;;;;35.45;61.07;99837.16;4442526;32;20008;-84
2022/07/03 11:19:35;;;;;;;;;;;;;;;35.71;61.08;99836.31;4469665;32;19969;-84
2022/07/03 11:22:01;;;;;;;;;;;;;;;35.90;61.10;99839.03;4455447;32;20371;-85
2022/07/03 11:24:45;;;;;;;;;;;;;;;35.85;61.09;99838.00;4455476;32;19987;-85
2022/07/03 11:27:19;;;;;;;;;;;;;;;35.92;61.10;99836.09;4442595;32;20015;-85
2022/07/03 11:29:52;;;;;;;;;;;;;;;35.95;61.10;99824.84;4469891;32;19968;-85
2022/07/03 11:32:36;;;;;;;;;;;;;;;36.20;61.10;99823.13;4442559;32;19984;-85
2022/07/03 11:35:01;;;;;;;;;;;;;;;36.24;61.11;99816.22;4454352;32;19992;-85
2022/07/03 11:37:26;;;;;;;;;;;;;;;36.54;61.13;99813.00;4455269;32;20027;-85
2022/07/03 11:39:52;;;;;;;;;;;;;;;36.52;61.12;99810.50;4469188;32;20078;-85
2022/07/03 11:42:18;;;;;;;;;;;;;;;36.31;61.12;99813.50;4454329;32;33197;-85
2022/07/03 11:44:43;;;;;;;;;;;;;;;36.17;61.10;99806.44;4442252;32;20007;-86
2022/07/03 11:47:09;;;;;;;;;;;;;;;36.16;61.11;99799.34;4441459;32;30623;-85
2022/07/03 11:49:35;;;;;;;;;;;;;;;36.11;61.11;99802.72;4454491;32;23153;-86
2022/07/03 11:52:01;;;;;;;;;;;;;;;36.38;61.12;99794.50;4442322;32;20044;-85
2022/07/03 11:54:29;;;;;;;;;;;;;;;36.68;61.13;99792.06;4442081;32;19999;-85
2022/07/03 11:56:54;;;;;;;;;;;;;;;36.82;61.14;99789.06;4442125;32;20504;-85
2022/07/03 11:59:19;;;;;;;;;;;;;;;36.52;61.12;99787.97;4454922;32;19999;-85
2022/07/03 12:01:45;;;;;;;;;;;;;;;36.46;61.12;99784.25;4454865;32;19991;-85
2022/07/03 12:04:10;;;;;;;;;;;;;;;36.55;61.13;99779.41;4454245;32;24306;-85
2022/07/03 12:06:41;;;;;;;;;;;;;;;36.73;61.14;99773.25;4469230;32;19980;-85
2022/07/03 12:09:23;;;;;;;;;;;;;;;36.82;61.14;99770.09;4469077;32;19969;-85
2022/07/03 12:11:52;;;;;;;;;;;;;;;36.68;61.13;99773.91;4454947;32;19985;-85
2022/07/03 12:14:17;;;;;;;;;;;;;;;36.56;61.13;99767.50;4454897;32;19982;-85
2022/07/03 12:16:42;;;;;;;;;;;;;;;36.87;61.15;99781.09;4454360;32;23845;-85
2022/07/03 12:19:07;;;;;;;;;;;;;;;36.80;61.14;99769.47;4454662;32;19981;-84
2022/07/03 12:21:37;;;;;;;;;;;;;;;36.84;61.14;99767.16;4454682;32;19976;-84
2022/07/03 12:24:04;;;;;;;;;;;;;;;36.77;61.13;99761.75;4441623;32;20009;-84
2022/07/03 12:26:33;;;;;;;;;;;;;;;36.58;61.12;99760.81;4454463;32;19997;-84
2022/07/03 12:28:59;;;;;;;;;;;;;;;36.52;61.12;99758.97;4441514;32;19973;-85
2022/07/03 12:31:24;;;;;;;;;;;;;;;36.51;61.12;99753.78;4441582;32;19977;-85
2022/07/03 12:33:50;;;;;;;;;;;;;;;36.36;61.13;99740.50;4454345;32;20363;-84
2022/07/03 12:36:15;;;;;;;;;;;;;;;36.15;61.11;99744.31;4453938;32;24035;-84
2022/07/03 12:38:40;;;;;;;;;;;;;;;35.96;61.10;99747.94;4441352;32;19988;-84
2022/07/03 12:41:06;;;;;;;;;;;;;;;35.94;61.10;99750.03;4429525;32;786243;-84
2022/07/03 12:43:41;;;;;;;;;;;;;;;36.11;61.10;99742.25;4468447;32;19973;-84
2022/07/03 12:46:36;;;;;;;;;;;;;;;36.09;61.10;99739.78;4454723;32;20066;-84
2022/07/03 12:49:11;;;;;;;;;;;;;;;36.04;61.10;99739.59;4443119;32;19981;-84
2022/07/03 12:51:37;;;;;;;;;;;;;;;35.99;61.11;99739.41;4456774;32;20040;-84
2022/07/03 12:54:03;;;;;;;;;;;;;;;36.21;61.10;99727.22;4456618;32;20000;-85